sensor_id;sensor_type;location;lat;lon;timestamp;pressure;altitude;pressure_sealevel;temperature;humidity
36692;BME280;22678;52.052;4.242;2023-07-30T00:02:17;100872.97;;;19.20;77.98
36692;BME280;22678;52.052;4.242;2023-07-30T00:04:46;100874.97;;;19.15;78.01
36692;BME280;22678;52.052;4.242;2023-07-30T00:07:12;100885.34;;;19.21;78.06
36692;BME280;22678;52.052;4.242;2023-07-30T00:09:38;100873.22;;;19.14;77.96
36692;BME280;22678;52.052;4.242;2023-07-30T00:12:05;100878.56;;;19.14;78.00
36692;BME280;22678;52.052;4.242;2023-07-30T00:14:30;100872.22;;;19.16;77.94
36692;BME280;22678;52.052;4.242;2023-07-30T00:16:56;100880.16;;;19.18;78.10
36692;BME280;22678;52.052;4.242;2023-07-30T00:19:21;100883.81;;;19.15;78.22
36692;BME280;22678;52.052;4.242;2023-07-30T00:21:47;100889.06;;;19.17;78.12
36692;BME280;22678;52.052;4.242;2023-07-30T00:24:13;100896.22;;;19.16;78.43
36692;BME280;22678;52.052;4.242;2023-07-30T00:26:38;100893.69;;;19.13;78.16
36692;BME280;22678;52.052;4.242;2023-07-30T00:29:04;100896.50;;;19.10;78.30
36692;BME280;22678;52.052;4.242;2023-07-30T00:31:29;100896.44;;;19.12;78.44
36692;BME280;22678;52.052;4.242;2023-07-30T00:33:55;100900.97;;;19.10;78.56
36692;BME280;22678;52.052;4.242;2023-07-30T00:36:20;100900.41;;;19.01;78.78
36692;BME280;22678;52.052;4.242;2023-07-30T00:38:46;100899.50;;;19.02;79.09
36692;BME280;22678;52.052;4.242;2023-07-30T00:41:11;100901.22;;;19.03;79.16
36692;BME280;22678;52.052;4.242;2023-07-30T00:43:37;100903.28;;;18.97;79.31
36692;BME280;22678;52.052;4.242;2023-07-30T00:46:02;100909.19;;;19.03;79.39
36692;BME280;22678;52.052;4.242;2023-07-30T00:48:28;100910.16;;;19.02;79.77
36692;BME280;22678;52.052;4.242;2023-07-30T00:50:53;100914.59;;;19.02;79.84
36692;BME280;22678;52.052;4.242;2023-07-30T00:53:21;100919.00;;;19.03;80.25
36692;BME280;22678;52.052;4.242;2023-07-30T00:55:48;100927.00;;;19.03;80.42
36692;BME280;22678;52.052;4.242;2023-07-30T00:58:13;100908.63;;;18.97;80.48
36692;BME280;22678;52.052;4.242;2023-07-30T01:00:39;100916.53;;;18.98;80.85
36692;BME280;22678;52.052;4.242;2023-07-30T01:03:05;100912.25;;;18.94;80.99
36692;BME280;22678;52.052;4.242;2023-07-30T01:05:31;100910.53;;;18.93;81.16
36692;BME280;22678;52.052;4.242;2023-07-30T01:07:56;100923.72;;;18.96;81.50
36692;BME280;22678;52.052;4.242;2023-07-30T01:10:22;100918.44;;;18.95;81.37
36692;BME280;22678;52.052;4.242;2023-07-30T01:12:48;100914.94;;;18.94;81.51
36692;BME280;22678;52.052;4.242;2023-07-30T01:15:13;100920.25;;;18.94;81.69
36692;BME280;22678;52.052;4.242;2023-07-30T01:17:39;100918.38;;;18.96;81.81
36692;BME280;22678;52.052;4.242;2023-07-30T01:20:05;100930.06;;;18.94;81.91
36692;BME280;22678;52.052;4.242;2023-07-30T01:22:30;100909.72;;;18.91;81.82
36692;BME280;22678;52.052;4.242;2023-07-30T01:24:56;100901.94;;;18.86;81.87
36692;BME280;22678;52.052;4.242;2023-07-30T01:27:29;100915.97;;;18.90;81.90
36692;BME280;22678;52.052;4.242;2023-07-30T01:32:40;100918.09;;;18.82;81.86
36692;BME280;22678;52.052;4.242;2023-07-30T01:35:07;100921.47;;;18.85;82.04
36692;BME280;22678;52.052;4.242;2023-07-30T01:37:33;100926.69;;;18.88;81.90
36692;BME280;22678;52.052;4.242;2023-07-30T01:39:59;100924.09;;;18.87;82.01
36692;BME280;22678;52.052;4.242;2023-07-30T01:42:29;100917.78;;;18.89;82.06
36692;BME280;22678;52.052;4.242;2023-07-30T01:44:55;100913.44;;;18.87;82.05
36692;BME280;22678;52.052;4.242;2023-07-30T01:47:20;100919.78;;;18.83;82.08
36692;BME280;22678;52.052;4.242;2023-07-30T01:49:45;100930.31;;;18.87;82.04
36692;BME280;22678;52.052;4.242;2023-07-30T01:52:11;100932.13;;;18.85;82.17
36692;BME280;22678;52.052;4.242;2023-07-30T01:54:36;100909.34;;;18.78;81.86
36692;BME280;22678;52.052;4.242;2023-07-30T01:57:01;100932.91;;;18.89;81.77
36692;BME280;22678;52.052;4.242;2023-07-30T01:59:27;100919.84;;;18.81;81.60
36692;BME280;22678;52.052;4.242;2023-07-30T02:01:52;100922.59;;;18.80;81.61
36692;BME280;22678;52.052;4.242;2023-07-30T02:04:18;100911.16;;;18.78;81.66
36692;BME280;22678;52.052;4.242;2023-07-30T02:06:43;100920.00;;;18.78;81.40
36692;BME280;22678;52.052;4.242;2023-07-30T02:09:08;100925.13;;;18.83;81.38
36692;BME280;22678;52.052;4.242;2023-07-30T02:11:34;100915.66;;;18.76;81.40
36692;BME280;22678;52.052;4.242;2023-07-30T02:13:59;100921.72;;;18.79;81.60
36692;BME280;22678;52.052;4.242;2023-07-30T02:16:24;100897.13;;;18.72;81.12
36692;BME280;22678;52.052;4.242;2023-07-30T02:18:50;100917.13;;;18.83;81.14
36692;BME280;22678;52.052;4.242;2023-07-30T02:21:15;100919.06;;;18.79;80.32
36692;BME280;22678;52.052;4.242;2023-07-30T02:23:40;100905.13;;;18.72;78.82
36692;BME280;22678;52.052;4.242;2023-07-30T02:26:06;100921.59;;;18.82;78.61
36692;BME280;22678;52.052;4.242;2023-07-30T02:28:31;100913.94;;;18.74;78.06
36692;BME280;22678;52.052;4.242;2023-07-30T02:30:56;100912.19;;;18.73;77.81
36692;BME280;22678;52.052;4.242;2023-07-30T02:33:22;100925.19;;;18.81;77.71
36692;BME280;22678;52.052;4.242;2023-07-30T02:35:47;100907.00;;;18.70;77.54
36692;BME280;22678;52.052;4.242;2023-07-30T02:38:12;100900.06;;;18.66;77.60
36692;BME280;22678;52.052;4.242;2023-07-30T02:40:38;100921.66;;;18.81;77.74
36692;BME280;22678;52.052;4.242;2023-07-30T02:43:03;100912.19;;;18.73;77.63
36692;BME280;22678;52.052;4.242;2023-07-30T02:45:29;100899.78;;;18.72;77.50
36692;BME280;22678;52.052;4.242;2023-07-30T02:47:54;100900.75;;;18.71;77.30
36692;BME280;22678;52.052;4.242;2023-07-30T02:50:19;100892.00;;;18.68;76.62
36692;BME280;22678;52.052;4.242;2023-07-30T02:52:45;100908.75;;;18.71;76.31
36692;BME280;22678;52.052;4.242;2023-07-30T02:55:10;100884.41;;;18.59;76.15
36692;BME280;22678;52.052;4.242;2023-07-30T02:57:35;100884.19;;;18.63;76.24
36692;BME280;22678;52.052;4.242;2023-07-30T03:00:02;100877.25;;;18.59;76.34
36692;BME280;22678;52.052;4.242;2023-07-30T03:02:29;100897.47;;;18.65;76.71
36692;BME280;22678;52.052;4.242;2023-07-30T03:04:54;100900.94;;;18.67;75.80
36692;BME280;22678;52.052;4.242;2023-07-30T03:07:19;100910.31;;;18.76;75.63
36692;BME280;22678;52.052;4.242;2023-07-30T03:09:45;100921.38;;;18.66;75.13
36692;BME280;22678;52.052;4.242;2023-07-30T03:12:10;100911.75;;;18.62;74.51
36692;BME280;22678;52.052;4.242;2023-07-30T03:14:35;100898.69;;;18.56;74.13
36692;BME280;22678;52.052;4.242;2023-07-30T03:17:01;100905.75;;;18.57;73.19
36692;BME280;22678;52.052;4.242;2023-07-30T03:19:26;100891.16;;;18.45;71.26
36692;BME280;22678;52.052;4.242;2023-07-30T03:21:51;100914.69;;;18.56;70.14
36692;BME280;22678;52.052;4.242;2023-07-30T03:24:17;100868.88;;;18.26;69.83
36692;BME280;22678;52.052;4.242;2023-07-30T03:26:42;100895.78;;;18.40;69.41
36692;BME280;22678;52.052;4.242;2023-07-30T03:29:07;100907.06;;;18.47;68.12
36692;BME280;22678;52.052;4.242;2023-07-30T03:31:32;100903.63;;;18.45;67.43
36692;BME280;22678;52.052;4.242;2023-07-30T03:33:58;100913.31;;;18.46;66.00
36692;BME280;22678;52.052;4.242;2023-07-30T03:36:23;100907.31;;;18.41;65.05
36692;BME280;22678;52.052;4.242;2023-07-30T03:38:49;100914.34;;;18.42;64.07
36692;BME280;22678;52.052;4.242;2023-07-30T03:41:14;100934.72;;;18.43;64.13
36692;BME280;22678;52.052;4.242;2023-07-30T03:43:39;100921.38;;;18.44;64.08
36692;BME280;22678;52.052;4.242;2023-07-30T03:46:04;100927.66;;;18.42;63.26
36692;BME280;22678;52.052;4.242;2023-07-30T03:48:30;100927.78;;;18.38;63.28
36692;BME280;22678;52.052;4.242;2023-07-30T03:50:56;100933.00;;;18.42;63.38
36692;BME280;22678;52.052;4.242;2023-07-30T03:53:21;100931.53;;;18.34;63.82
36692;BME280;22678;52.052;4.242;2023-07-30T03:55:47;100920.97;;;18.31;63.63
36692;BME280;22678;52.052;4.242;2023-07-30T03:58:13;100931.41;;;18.37;63.82
36692;BME280;22678;52.052;4.242;2023-07-30T04:00:39;100924.53;;;18.32;63.93
36692;BME280;22678;52.052;4.242;2023-07-30T04:03:04;100929.66;;;18.36;63.80
36692;BME280;22678;52.052;4.242;2023-07-30T04:05:30;100925.25;;;18.35;63.82
36692;BME280;22678;52.052;4.242;2023-07-30T04:07:55;100915.78;;;18.28;63.98
36692;BME280;22678;52.052;4.242;2023-07-30T04:10:21;100913.94;;;18.30;63.72
36692;BME280;22678;52.052;4.242;2023-07-30T04:12:46;100843.75;;;17.85;63.52
36692;BME280;22678;52.052;4.242;2023-07-30T04:15:12;100917.56;;;18.28;63.62
36692;BME280;22678;52.052;4.242;2023-07-30T04:17:37;100925.25;;;18.35;63.72
36692;BME280;22678;52.052;4.242;2023-07-30T04:20:03;100895.69;;;18.19;64.14
36692;BME280;22678;52.052;4.242;2023-07-30T04:22:29;100921.91;;;18.30;64.35
36692;BME280;22678;52.052;4.242;2023-07-30T04:24:54;100911.53;;;18.24;64.55
36692;BME280;22678;52.052;4.242;2023-07-30T04:27:20;100900.97;;;18.21;64.57
36692;BME280;22678;52.052;4.242;2023-07-30T04:29:45;100930.56;;;18.35;64.41
36692;BME280;22678;52.052;4.242;2023-07-30T04:32:10;100912.97;;;18.31;64.65
36692;BME280;22678;52.052;4.242;2023-07-30T04:34:36;100914.06;;;18.27;64.84
36692;BME280;22678;52.052;4.242;2023-07-30T04:37:01;100914.72;;;18.32;65.01
36692;BME280;22678;52.052;4.242;2023-07-30T04:39:27;100901.78;;;18.23;64.83
36692;BME280;22678;52.052;4.242;2023-07-30T04:41:53;100901.78;;;18.23;64.61
36692;BME280;22678;52.052;4.242;2023-07-30T04:44:18;100900.88;;;18.24;64.12
36692;BME280;22678;52.052;4.242;2023-07-30T04:46:43;100933.13;;;18.38;64.34
36692;BME280;22678;52.052;4.242;2023-07-30T04:49:09;100929.41;;;18.43;64.59
36692;BME280;22678;52.052;4.242;2023-07-30T04:51:34;100908.75;;;18.27;64.65
36692;BME280;22678;52.052;4.242;2023-07-30T04:54:00;100924.28;;;18.38;64.76
36692;BME280;22678;52.052;4.242;2023-07-30T04:56:25;100926.94;;;18.38;65.07
36692;BME280;22678;52.052;4.242;2023-07-30T04:58:51;100866.22;;;18.02;65.37
36692;BME280;22678;52.052;4.242;2023-07-30T05:01:17;100834.00;;;17.86;65.60
36692;BME280;22678;52.052;4.242;2023-07-30T05:03:42;100919.25;;;18.30;66.16
36692;BME280;22678;52.052;4.242;2023-07-30T05:06:07;100926.81;;;18.41;66.40
36692;BME280;22678;52.052;4.242;2023-07-30T05:08:33;100922.47;;;18.38;66.80
36692;BME280;22678;52.052;4.242;2023-07-30T05:10:58;100922.41;;;18.40;67.05
36692;BME280;22678;52.052;4.242;2023-07-30T05:13:23;100942.53;;;18.47;67.35
36692;BME280;22678;52.052;4.242;2023-07-30T05:15:49;100930.13;;;18.48;67.39
36692;BME280;22678;52.052;4.242;2023-07-30T05:18:14;100943.97;;;18.56;67.25
36692;BME280;22678;52.052;4.242;2023-07-30T05:20:39;100933.63;;;18.48;66.96
36692;BME280;22678;52.052;4.242;2023-07-30T05:23:05;100939.47;;;18.58;67.04
36692;BME280;22678;52.052;4.242;2023-07-30T05:25:32;100929.03;;;18.52;67.29
36692;BME280;22678;52.052;4.242;2023-07-30T05:27:57;100939.34;;;18.61;67.17
36692;BME280;22678;52.052;4.242;2023-07-30T05:30:22;100935.59;;;18.65;67.38
36692;BME280;22678;52.052;4.242;2023-07-30T05:32:49;100917.34;;;18.56;67.20
36692;BME280;22678;52.052;4.242;2023-07-30T05:35:14;100941.19;;;18.81;67.21
36692;BME280;22678;52.052;4.242;2023-07-30T05:37:40;100920.97;;;18.76;67.04
36692;BME280;22678;52.052;4.242;2023-07-30T05:40:06;100914.84;;;18.73;66.73
36692;BME280;22678;52.052;4.242;2023-07-30T05:42:32;100924.13;;;18.85;66.54
36692;BME280;22678;52.052;4.242;2023-07-30T05:44:57;100924.19;;;18.84;66.05
36692;BME280;22678;52.052;4.242;2023-07-30T05:47:22;100924.09;;;18.87;65.91
36692;BME280;22678;52.052;4.242;2023-07-30T05:49:48;100932.66;;;18.95;66.01
36692;BME280;22678;52.052;4.242;2023-07-30T05:52:13;100922.25;;;18.89;66.26
36692;BME280;22678;52.052;4.242;2023-07-30T05:54:38;100902.16;;;18.80;66.35
36692;BME280;22678;52.052;4.242;2023-07-30T05:57:04;100943.19;;;18.98;66.23
36692;BME280;22678;52.052;4.242;2023-07-30T05:59:29;100926.56;;;18.91;65.45
36692;BME280;22678;52.052;4.242;2023-07-30T06:01:56;100943.38;;;18.94;65.25
36692;BME280;22678;52.052;4.242;2023-07-30T06:04:21;100929.78;;;18.78;64.85
36692;BME280;22678;52.052;4.242;2023-07-30T06:06:46;100926.44;;;18.72;64.88
36692;BME280;22678;52.052;4.242;2023-07-30T06:09:12;100925.63;;;18.70;65.23
36692;BME280;22678;52.052;4.242;2023-07-30T06:11:37;100942.34;;;18.74;65.41
36692;BME280;22678;52.052;4.242;2023-07-30T06:14:03;100918.16;;;18.58;65.82
36692;BME280;22678;52.052;4.242;2023-07-30T06:16:28;100926.94;;;18.60;66.32
36692;BME280;22678;52.052;4.242;2023-07-30T06:18:53;100931.53;;;18.56;66.56
36692;BME280;22678;52.052;4.242;2023-07-30T06:21:19;100951.34;;;18.71;66.42
36692;BME280;22678;52.052;4.242;2023-07-30T06:23:44;100958.41;;;18.72;66.25
36692;BME280;22678;52.052;4.242;2023-07-30T06:26:09;100933.81;;;18.66;66.29
36692;BME280;22678;52.052;4.242;2023-07-30T06:28:34;100877.66;;;18.28;66.03
36692;BME280;22678;52.052;4.242;2023-07-30T06:31:03;100959.75;;;18.83;65.82
36692;BME280;22678;52.052;4.242;2023-07-30T06:33:28;100934.50;;;18.71;65.79
36692;BME280;22678;52.052;4.242;2023-07-30T06:35:53;100949.00;;;18.86;65.90
36692;BME280;22678;52.052;4.242;2023-07-30T06:38:18;100961.28;;;18.90;65.83
36692;BME280;22678;52.052;4.242;2023-07-30T06:40:44;100961.41;;;18.87;65.97
36692;BME280;22678;52.052;4.242;2023-07-30T06:43:09;100968.94;;;18.76;66.07
36692;BME280;22678;52.052;4.242;2023-07-30T06:45:34;100986.53;;;18.80;66.43
36692;BME280;22678;52.052;4.242;2023-07-30T06:48:00;100981.44;;;18.73;68.07
36692;BME280;22678;52.052;4.242;2023-07-30T06:50:25;100950.72;;;18.43;69.84
36692;BME280;22678;52.052;4.242;2023-07-30T06:52:50;100967.53;;;18.43;71.38
36692;BME280;22678;52.052;4.242;2023-07-30T06:55:15;100930.31;;;18.19;72.48
36692;BME280;22678;52.052;4.242;2023-07-30T06:57:41;100942.63;;;18.22;73.54
36692;BME280;22678;52.052;4.242;2023-07-30T07:00:07;100948.06;;;18.19;74.79
36692;BME280;22678;52.052;4.242;2023-07-30T07:02:32;100968.69;;;18.37;75.77
36692;BME280;22678;52.052;4.242;2023-07-30T07:04:58;100965.88;;;18.41;76.43
36692;BME280;22678;52.052;4.242;2023-07-30T07:07:23;100968.03;;;18.31;76.28
36692;BME280;22678;52.052;4.242;2023-07-30T07:09:48;100986.31;;;18.40;76.25
36692;BME280;22678;52.052;4.242;2023-07-30T07:12:14;100963.13;;;18.20;76.23
36692;BME280;22678;52.052;4.242;2023-07-30T07:14:39;100982.56;;;18.22;76.34
36692;BME280;22678;52.052;4.242;2023-07-30T07:17:05;100968.56;;;18.17;75.44
36692;BME280;22678;52.052;4.242;2023-07-30T07:19:31;100992.16;;;18.26;75.67
36692;BME280;22678;52.052;4.242;2023-07-30T07:22:01;100994.34;;;18.38;75.76
36692;BME280;22678;52.052;4.242;2023-07-30T07:24:27;101002.88;;;18.70;75.79
36692;BME280;22678;52.052;4.242;2023-07-30T07:26:52;100989.00;;;18.84;75.29
36692;BME280;22678;52.052;4.242;2023-07-30T07:29:17;100972.16;;;18.84;74.36
36692;BME280;22678;52.052;4.242;2023-07-30T07:31:42;100975.56;;;18.89;73.69
36692;BME280;22678;52.052;4.242;2023-07-30T07:34:08;100972.06;;;18.87;73.56
36692;BME280;22678;52.052;4.242;2023-07-30T07:36:33;100982.81;;;18.84;73.78
36692;BME280;22678;52.052;4.242;2023-07-30T07:39:00;101008.00;;;18.99;74.05
36692;BME280;22678;52.052;4.242;2023-07-30T07:41:25;101001.94;;;18.95;73.84
36692;BME280;22678;52.052;4.242;2023-07-30T07:43:51;100995.97;;;18.88;73.45
36692;BME280;22678;52.052;4.242;2023-07-30T07:46:17;101004.59;;;18.95;72.98
36692;BME280;22678;52.052;4.242;2023-07-30T07:48:43;101015.13;;;18.98;72.79
36692;BME280;22678;52.052;4.242;2023-07-30T07:51:10;101004.47;;;18.98;72.66
36692;BME280;22678;52.052;4.242;2023-07-30T07:53:38;101001.56;;;19.04;71.65
36692;BME280;22678;52.052;4.242;2023-07-30T07:56:04;101020.66;;;19.16;70.57
36692;BME280;22678;52.052;4.242;2023-07-30T07:58:30;101004.78;;;19.13;69.39
36692;BME280;22678;52.052;4.242;2023-07-30T08:00:56;101034.03;;;19.36;68.94
36692;BME280;22678;52.052;4.242;2023-07-30T08:03:22;101041.50;;;19.49;69.32
36692;BME280;22678;52.052;4.242;2023-07-30T08:05:48;101034.44;;;19.68;68.86
36692;BME280;22678;52.052;4.242;2023-07-30T08:08:14;101016.28;;;19.56;67.57
36692;BME280;22678;52.052;4.242;2023-07-30T08:10:39;101041.50;;;19.69;66.77
36692;BME280;22678;52.052;4.242;2023-07-30T08:13:07;101005.06;;;19.48;66.79
36692;BME280;22678;52.052;4.242;2023-07-30T08:15:33;101027.66;;;19.61;67.22
36692;BME280;22678;52.052;4.242;2023-07-30T08:17:58;101005.56;;;19.57;66.57
36692;BME280;22678;52.052;4.242;2023-07-30T08:20:23;101029.09;;;19.68;65.71
36692;BME280;22678;52.052;4.242;2023-07-30T08:22:49;101009.84;;;19.61;65.70
36692;BME280;22678;52.052;4.242;2023-07-30T08:25:14;101007.66;;;19.71;65.91
36692;BME280;22678;52.052;4.242;2023-07-30T08:27:39;101023.28;;;19.81;65.97
36692;BME280;22678;52.052;4.242;2023-07-30T08:30:05;101010.56;;;19.86;66.37
36692;BME280;22678;52.052;4.242;2023-07-30T08:32:32;101018.13;;;19.97;65.57
36692;BME280;22678;52.052;4.242;2023-07-30T08:34:58;101021.66;;;19.97;65.63
36692;BME280;22678;52.052;4.242;2023-07-30T08:37:23;101023.72;;;19.90;65.48
36692;BME280;22678;52.052;4.242;2023-07-30T08:39:48;101030.69;;;20.13;64.28
36692;BME280;22678;52.052;4.242;2023-07-30T08:42:14;101022.94;;;20.28;64.17
36692;BME280;22678;52.052;4.242;2023-07-30T08:44:39;101020.06;;;20.52;63.60
36692;BME280;22678;52.052;4.242;2023-07-30T08:47:04;101038.13;;;20.85;63.05
36692;BME280;22678;52.052;4.242;2023-07-30T08:49:30;101010.50;;;20.65;61.65
36692;BME280;22678;52.052;4.242;2023-07-30T08:51:59;101035.25;;;20.70;61.01
36692;BME280;22678;52.052;4.242;2023-07-30T08:54:26;101024.03;;;20.81;60.49
36692;BME280;22678;52.052;4.242;2023-07-30T08:56:53;101038.50;;;21.13;60.71
36692;BME280;22678;52.052;4.242;2023-07-30T08:59:19;101031.00;;;21.22;60.49
36692;BME280;22678;52.052;4.242;2023-07-30T09:01:46;101035.78;;;20.96;60.39
36692;BME280;22678;52.052;4.242;2023-07-30T09:04:17;101045.06;;;20.70;60.92
36692;BME280;22678;52.052;4.242;2023-07-30T09:06:42;101061.66;;;20.57;61.40
36692;BME280;22678;52.052;4.242;2023-07-30T09:09:10;101030.28;;;20.23;61.13
36692;BME280;22678;52.052;4.242;2023-07-30T09:11:36;101049.50;;;20.31;62.10
36692;BME280;22678;52.052;4.242;2023-07-30T09:14:02;101060.69;;;20.39;62.06
36692;BME280;22678;52.052;4.242;2023-07-30T09:16:28;101037.63;;;20.18;62.50
36692;BME280;22678;52.052;4.242;2023-07-30T09:18:53;101051.28;;;20.11;62.63
36692;BME280;22678;52.052;4.242;2023-07-30T09:21:19;101049.19;;;20.18;62.71
36692;BME280;22678;52.052;4.242;2023-07-30T09:23:46;101053.75;;;20.35;61.80
36692;BME280;22678;52.052;4.242;2023-07-30T09:26:13;101033.31;;;20.34;61.35
36692;BME280;22678;52.052;4.242;2023-07-30T09:28:41;101035.56;;;20.43;61.60
36692;BME280;22678;52.052;4.242;2023-07-30T09:31:07;101045.66;;;20.76;60.80
36692;BME280;22678;52.052;4.242;2023-07-30T09:33:34;101078.47;;;21.16;60.11
36692;BME280;22678;52.052;4.242;2023-07-30T09:36:03;101073.50;;;21.45;60.16
36692;BME280;22678;52.052;4.242;2023-07-30T09:38:29;101064.09;;;21.73;59.64
36692;BME280;22678;52.052;4.242;2023-07-30T09:41:01;101062.34;;;21.90;59.13
36692;BME280;22678;52.052;4.242;2023-07-30T09:43:34;101093.13;;;22.16;57.37
36692;BME280;22678;52.052;4.242;2023-07-30T09:46:04;101089.84;;;22.27;57.05
36692;BME280;22678;52.052;4.242;2023-07-30T09:48:31;101082.31;;;22.35;56.90
36692;BME280;22678;52.052;4.242;2023-07-30T09:51:01;101098.75;;;22.45;56.15
36692;BME280;22678;52.052;4.242;2023-07-30T09:53:31;101015.06;;;22.06;56.02
36692;BME280;22678;52.052;4.242;2023-07-30T09:56:04;101097.22;;;22.56;55.26
36692;BME280;22678;52.052;4.242;2023-07-30T09:58:31;101092.69;;;22.41;54.72
36692;BME280;22678;52.052;4.242;2023-07-30T10:01:00;101097.13;;;22.25;55.88
36692;BME280;22678;52.052;4.242;2023-07-30T10:03:26;101108.94;;;22.20;55.96
36692;BME280;22678;52.052;4.242;2023-07-30T10:05:55;101107.38;;;22.16;55.93
36692;BME280;22678;52.052;4.242;2023-07-30T10:08:26;101104.78;;;21.97;56.62
36692;BME280;22678;52.052;4.242;2023-07-30T10:10:54;101117.75;;;22.05;56.18
36692;BME280;22678;52.052;4.242;2023-07-30T10:13:21;101095.25;;;21.92;56.30
36692;BME280;22678;52.052;4.242;2023-07-30T10:15:47;101117.00;;;22.03;55.88
36692;BME280;22678;52.052;4.242;2023-07-30T10:18:12;101112.09;;;22.11;55.95
36692;BME280;22678;52.052;4.242;2023-07-30T10:20:39;101108.78;;;22.06;56.45
36692;BME280;22678;52.052;4.242;2023-07-30T10:23:05;101124.53;;;22.12;56.61
36692;BME280;22678;52.052;4.242;2023-07-30T10:28:07;101128.97;;;22.13;57.20
36692;BME280;22678;52.052;4.242;2023-07-30T10:30:33;101141.63;;;22.10;57.12
36692;BME280;22678;52.052;4.242;2023-07-30T10:33:03;101131.47;;;22.16;57.52
36692;BME280;22678;52.052;4.242;2023-07-30T10:35:39;101120.75;;;22.16;57.00
36692;BME280;22678;52.052;4.242;2023-07-30T10:40:40;101133.81;;;22.22;55.50
36692;BME280;22678;52.052;4.242;2023-07-30T10:43:16;101139.19;;;22.22;56.68
36692;BME280;22678;52.052;4.242;2023-07-30T10:45:49;101150.38;;;22.31;56.17
36692;BME280;22678;52.052;4.242;2023-07-30T10:48:16;101115.56;;;22.13;55.36
36692;BME280;22678;52.052;4.242;2023-07-30T10:50:41;101151.91;;;22.36;56.03
36692;BME280;22678;52.052;4.242;2023-07-30T10:53:08;101138.50;;;22.36;55.81
36692;BME280;22678;52.052;4.242;2023-07-30T10:55:34;101131.41;;;22.35;55.95
36692;BME280;22678;52.052;4.242;2023-07-30T10:57:59;101139.03;;;22.43;55.63
36692;BME280;22678;52.052;4.242;2023-07-30T11:00:25;101152.00;;;22.51;55.70
36692;BME280;22678;52.052;4.242;2023-07-30T11:02:54;101153.84;;;22.50;55.44
36692;BME280;22678;52.052;4.242;2023-07-30T11:05:19;101146.13;;;22.44;55.47
36692;BME280;22678;52.052;4.242;2023-07-30T11:07:51;101161.72;;;22.53;55.16
36692;BME280;22678;52.052;4.242;2023-07-30T11:10:17;101147.22;;;22.40;55.39
36692;BME280;22678;52.052;4.242;2023-07-30T11:12:43;101145.50;;;22.39;55.22
36692;BME280;22678;52.052;4.242;2023-07-30T11:15:09;101151.66;;;22.41;55.42
36692;BME280;22678;52.052;4.242;2023-07-30T11:17:35;101162.38;;;22.41;56.44
36692;BME280;22678;52.052;4.242;2023-07-30T11:20:00;101160.47;;;22.43;55.99
36692;BME280;22678;52.052;4.242;2023-07-30T11:22:32;101172.75;;;22.47;56.61
36692;BME280;22678;52.052;4.242;2023-07-30T11:24:58;101169.50;;;22.58;55.42
36692;BME280;22678;52.052;4.242;2023-07-30T11:27:24;101154.53;;;22.54;55.41
36692;BME280;22678;52.052;4.242;2023-07-30T11:29:58;101144.13;;;22.30;55.79
36692;BME280;22678;52.052;4.242;2023-07-30T11:32:23;101162.97;;;22.29;56.09
36692;BME280;22678;52.052;4.242;2023-07-30T11:34:52;101150.53;;;22.28;55.58
36692;BME280;22678;52.052;4.242;2023-07-30T11:37:18;101163.91;;;22.45;56.12
36692;BME280;22678;52.052;4.242;2023-07-30T11:39:44;101179.34;;;22.57;55.69
36692;BME280;22678;52.052;4.242;2023-07-30T11:42:10;101166.66;;;22.61;55.10
36692;BME280;22678;52.052;4.242;2023-07-30T11:44:36;101163.13;;;22.61;54.84
36692;BME280;22678;52.052;4.242;2023-07-30T11:47:08;101150.94;;;22.71;54.62
36692;BME280;22678;52.052;4.242;2023-07-30T11:49:36;101160.41;;;22.94;54.61
36692;BME280;22678;52.052;4.242;2023-07-30T11:54:30;101143.13;;;23.32;53.29
36692;BME280;22678;52.052;4.242;2023-07-30T11:56:57;101157.66;;;23.59;51.93
36692;BME280;22678;52.052;4.242;2023-07-30T11:59:23;101157.47;;;23.62;52.04
36692;BME280;22678;52.052;4.242;2023-07-30T12:01:48;101163.47;;;23.82;51.93
36692;BME280;22678;52.052;4.242;2023-07-30T12:04:14;101165.06;;;23.86;51.02
36692;BME280;22678;52.052;4.242;2023-07-30T12:09:14;101186.91;;;23.96;51.21
36692;BME280;22678;52.052;4.242;2023-07-30T12:11:54;101183.44;;;23.94;50.23
36692;BME280;22678;52.052;4.242;2023-07-30T12:14:22;101186.63;;;24.01;50.87
36692;BME280;22678;52.052;4.242;2023-07-30T12:16:50;101179.88;;;23.93;50.49
36692;BME280;22678;52.052;4.242;2023-07-30T12:19:16;101150.69;;;23.71;50.75
36692;BME280;22678;52.052;4.242;2023-07-30T12:21:41;101188.38;;;23.70;51.41
36692;BME280;22678;52.052;4.242;2023-07-30T12:24:06;101198.19;;;23.71;51.05
36692;BME280;22678;52.052;4.242;2023-07-30T12:26:32;101169.00;;;23.65;51.58
36692;BME280;22678;52.052;4.242;2023-07-30T12:28:57;101193.31;;;23.93;49.94
36692;BME280;22678;52.052;4.242;2023-07-30T12:31:23;101184.38;;;23.93;49.90
36692;BME280;22678;52.052;4.242;2023-07-30T12:33:48;101203.50;;;24.03;49.83
36692;BME280;22678;52.052;4.242;2023-07-30T12:36:13;101178.75;;;23.98;49.71
36692;BME280;22678;52.052;4.242;2023-07-30T12:38:39;101192.41;;;24.09;50.25
36692;BME280;22678;52.052;4.242;2023-07-30T12:41:04;101189.13;;;24.04;49.79
36692;BME280;22678;52.052;4.242;2023-07-30T12:43:29;101182.66;;;24.22;48.87
36692;BME280;22678;52.052;4.242;2023-07-30T12:45:55;101190.06;;;24.33;48.92
36692;BME280;22678;52.052;4.242;2023-07-30T12:48:20;101182.41;;;24.41;48.01
36692;BME280;22678;52.052;4.242;2023-07-30T12:50:46;101185.56;;;24.48;48.52
36692;BME280;22678;52.052;4.242;2023-07-30T12:53:11;101200.00;;;24.61;48.58
36692;BME280;22678;52.052;4.242;2023-07-30T12:55:36;101185.56;;;24.48;49.28
36692;BME280;22678;52.052;4.242;2023-07-30T12:58:03;101208.22;;;24.44;49.63